createdAt,value
2022-12-11T00:00:57.727Z,97850.25
2022-12-11T00:03:25.740Z,97844.44
2022-12-11T00:05:53.733Z,97838.03
2022-12-11T00:08:21.812Z,97801.72
2022-12-11T00:10:50.486Z,97855.84
2022-12-11T00:13:19.849Z,97828.41
2022-12-11T00:15:47.829Z,97775.31
2022-12-11T00:18:15.976Z,97792.81
2022-12-11T00:20:44.105Z,97780.75
2022-12-11T00:23:12.365Z,97765.06
2022-12-11T00:25:43.924Z,97766.78
2022-12-11T00:28:12.053Z,97757.41
2022-12-11T00:30:42.872Z,97767.28
2022-12-11T00:33:11.530Z,97775.19
2022-12-11T00:35:40.141Z,97778.38
2022-12-11T00:38:08.254Z,97775.38
2022-12-11T00:40:37.032Z,97762.50
2022-12-11T00:43:05.259Z,97773.94
2022-12-11T00:45:36.701Z,97805.94
2022-12-11T00:48:06.955Z,97781.56
2022-12-11T00:50:35.654Z,97776.41
2022-12-11T00:53:04.544Z,97791.66
2022-12-11T00:55:32.694Z,97766.41
2022-12-11T00:58:00.941Z,97742.75
2022-12-11T01:00:28.848Z,97750.28
2022-12-11T01:02:56.796Z,97779.16
2022-12-11T01:05:26.201Z,97724.63
2022-12-11T01:07:54.214Z,97726.34
2022-12-11T01:10:27.155Z,97713.63
2022-12-11T01:12:57.365Z,97705.94
2022-12-11T01:15:27.729Z,97683.25
2022-12-11T01:17:56.057Z,97704.81
2022-12-11T01:20:26.937Z,97717.22
2022-12-11T01:22:57.916Z,97718.53
2022-12-11T01:25:26.265Z,97716.63
2022-12-11T01:27:55.154Z,97705.41
2022-12-11T01:30:25.085Z,97697.72
2022-12-11T01:32:53.544Z,97680.94
2022-12-11T01:35:21.931Z,97690.22
2022-12-11T01:37:51.312Z,97681.91
2022-12-11T01:40:21.037Z,97694.94
2022-12-11T01:42:49.101Z,97684.19
2022-12-11T01:45:36.551Z,97649.69
2022-12-11T01:48:09.505Z,97604.81
2022-12-11T01:50:41.195Z,97590.44
2022-12-11T01:53:13.229Z,97567.75
2022-12-11T01:55:42.341Z,97553.78
2022-12-11T01:58:11.693Z,97557.53
2022-12-11T02:00:40.290Z,97560.69
2022-12-11T02:03:08.237Z,97545.03
2022-12-11T02:05:36.172Z,97569.03
2022-12-11T02:08:05.358Z,97605.53
2022-12-11T02:10:44.805Z,97604.72
2022-12-11T02:13:18.857Z,97599.00
2022-12-11T02:15:53.274Z,97553.22
2022-12-11T02:18:31.379Z,97577.81
2022-12-11T02:21:07.072Z,97594.44
2022-12-11T02:23:55.301Z,97593.66
2022-12-11T02:26:41.778Z,97578.59
2022-12-11T02:29:19.104Z,97555.59
2022-12-11T02:31:51.914Z,97582.22
2022-12-11T02:34:24.720Z,97571.94
2022-12-11T02:36:57.403Z,97580.56
2022-12-11T02:39:28.335Z,97573.97
2022-12-11T02:41:57.694Z,97565.56
2022-12-11T02:44:31.527Z,97545.09
2022-12-11T02:47:00.412Z,97468.72
2022-12-11T02:49:30.161Z,97521.13
2022-12-11T02:52:00.375Z,97537.88
2022-12-11T02:54:31.682Z,97524.44
2022-12-11T02:57:04.838Z,97518.31
2022-12-11T02:59:36.972Z,97522.09
2022-12-11T03:02:06.159Z,97547.09
2022-12-11T03:04:36.358Z,97530.81
2022-12-11T03:07:12.186Z,97547.09
2022-12-11T03:09:40.702Z,97562.88
2022-12-11T03:12:11.239Z,97543.53
2022-12-11T03:14:42.734Z,97551.59
2022-12-11T03:17:16.573Z,97551.13
2022-12-11T03:19:51.284Z,97564.81
2022-12-11T03:22:24.586Z,97565.69
2022-12-11T03:24:55.632Z,97570.13
2022-12-11T03:27:28.061Z,97585.03
2022-12-11T03:30:01.516Z,97585.94
2022-12-11T03:32:33.011Z,97582.72
2022-12-11T03:35:04.731Z,97566.56
2022-12-11T03:37:37.752Z,97557.66
2022-12-11T03:40:11.360Z,97565.13
2022-12-11T03:42:41.132Z,97551.75
2022-12-11T03:45:12.114Z,97547.88
2022-12-11T03:47:42.189Z,97550.06
2022-12-11T03:50:13.133Z,97554.13
2022-12-11T03:52:45.964Z,97533.75
2022-12-11T03:55:17.254Z,97535.06
2022-12-11T03:57:45.785Z,97525.28
2022-12-11T04:00:18.297Z,97536.97
2022-12-11T04:03:12.713Z,97535.06
2022-12-11T04:05:41.822Z,97543.91
2022-12-11T04:08:09.891Z,97551.78
2022-12-11T04:10:37.934Z,97549.59
2022-12-11T04:13:06.114Z,97547.34
2022-12-11T04:15:34.686Z,97534.13
2022-12-11T04:18:20.296Z,97550.41
2022-12-11T04:21:05.832Z,97568.28
2022-12-11T04:23:51.168Z,97550.84
2022-12-11T04:26:21.382Z,97556.38
2022-12-11T04:28:50.444Z,97522.97
2022-12-11T04:31:21.615Z,97536.69
2022-12-11T04:33:50.074Z,97534.34
2022-12-11T04:36:18.071Z,97545.97
2022-12-11T04:38:46.091Z,97542.47
2022-12-11T04:41:16.761Z,97545.88
2022-12-11T04:43:45.507Z,97560.34
2022-12-11T04:46:15.986Z,97531.53
2022-12-11T04:48:46.247Z,97557.78
2022-12-11T04:51:14.254Z,97556.53
2022-12-11T04:53:42.556Z,97547.44
2022-12-11T04:56:12.665Z,97543.91
2022-12-11T04:58:41.395Z,97550.63
2022-12-11T05:01:10.333Z,97553.59
2022-12-11T05:03:38.898Z,97557.81
2022-12-11T05:06:09.609Z,97557.53
2022-12-11T05:08:40.392Z,97569.94
2022-12-11T05:11:10.266Z,97567.31
2022-12-11T05:13:38.369Z,97570.78
2022-12-11T05:16:07.205Z,97577.50
2022-12-11T05:18:35.303Z,97573.19
2022-12-11T05:21:05.768Z,97572.69
2022-12-11T05:23:35.401Z,97571.13
2022-12-11T05:26:05.601Z,97568.78
2022-12-11T05:28:35.770Z,97570.06
2022-12-11T05:31:05.975Z,97577.25
2022-12-11T05:33:34.305Z,97593.16
2022-12-11T05:36:02.613Z,97615.22
2022-12-11T05:38:41.192Z,97607.53
2022-12-11T05:41:09.215Z,97622.72
2022-12-11T05:43:37.959Z,97618.06
2022-12-11T05:46:09.761Z,97621.69
2022-12-11T05:48:38.811Z,97612.31
2022-12-11T05:51:08.370Z,97591.00
2022-12-11T05:53:37.721Z,97600.06
2022-12-11T05:56:09.397Z,97622.69
2022-12-11T05:58:37.296Z,97628.69
2022-12-11T06:01:09.926Z,97610.53
2022-12-11T06:03:38.203Z,97653.63
2022-12-11T06:06:07.469Z,97668.84
2022-12-11T06:08:35.729Z,97671.53
2022-12-11T06:11:04.333Z,97673.59
2022-12-11T06:13:33.752Z,97688.06
2022-12-11T06:16:03.534Z,97668.84
2022-12-11T06:18:31.736Z,97674.00
2022-12-11T06:20:59.752Z,97677.00
2022-12-11T06:23:27.632Z,97685.47
2022-12-11T06:25:55.601Z,97687.25
2022-12-11T06:28:23.527Z,97682.91
2022-12-11T06:30:52.810Z,97680.75
2022-12-11T06:33:20.746Z,97678.53
2022-12-11T06:35:48.816Z,97689.56
2022-12-11T06:38:17.506Z,97683.66
2022-12-11T06:40:45.469Z,97680.88
2022-12-11T06:43:13.417Z,97685.59
2022-12-11T06:45:41.514Z,97660.25
2022-12-11T06:48:10.802Z,97678.56
2022-12-11T06:50:39.441Z,97684.00
2022-12-11T06:53:07.492Z,97696.94
2022-12-11T06:55:36.263Z,97693.69
2022-12-11T06:58:04.457Z,97691.47
2022-12-11T07:00:32.942Z,97698.03
2022-12-11T07:03:00.855Z,97707.47
2022-12-11T07:05:30.196Z,97709.84
2022-12-11T07:07:58.317Z,97713.78
2022-12-11T07:10:26.882Z,97697.38
2022-12-11T07:12:55.187Z,97705.78
2022-12-11T07:15:23.130Z,97707.91
2022-12-11T07:17:51.397Z,97714.69
2022-12-11T07:20:19.352Z,97712.19
2022-12-11T07:22:48.672Z,97696.31
2022-12-11T07:25:16.777Z,97707.63
2022-12-11T07:27:44.715Z,97707.13
2022-12-11T07:30:13.779Z,97714.88
2022-12-11T07:32:41.738Z,97715.34
2022-12-11T07:35:10.848Z,97715.88
2022-12-11T07:37:41.774Z,97691.81
2022-12-11T07:40:18.731Z,97712.38
2022-12-11T07:42:46.667Z,97720.38
2022-12-11T07:45:14.887Z,97725.59
2022-12-11T07:47:42.928Z,97713.31
2022-12-11T07:50:11.207Z,97707.97
2022-12-11T07:52:39.178Z,97698.31
2022-12-11T07:55:07.564Z,97702.00
2022-12-11T07:57:36.936Z,97712.56
2022-12-11T08:00:06.340Z,97709.41
2022-12-11T08:02:37.407Z,97715.47
2022-12-11T08:05:06.234Z,97718.16
2022-12-11T08:07:35.795Z,97721.69
2022-12-11T08:10:04.784Z,97733.25
2022-12-11T08:12:32.866Z,97735.81
2022-12-11T08:15:02.243Z,97750.78
2022-12-11T08:17:33.919Z,97749.72
2022-12-11T08:20:05.532Z,97735.88
2022-12-11T08:22:33.473Z,97726.16
2022-12-11T08:25:01.387Z,97719.19
2022-12-11T08:27:29.289Z,97723.03
2022-12-11T08:29:57.246Z,97712.66
2022-12-11T08:32:26.566Z,97706.03
2022-12-11T08:34:54.439Z,97695.22
2022-12-11T08:37:22.427Z,97695.91
2022-12-11T08:39:50.446Z,97700.22
2022-12-11T08:42:18.503Z,97690.63
2022-12-11T08:44:46.621Z,97687.47
2022-12-11T08:47:15.421Z,97695.81
2022-12-11T08:49:44.711Z,97712.84
2022-12-11T08:52:12.631Z,97698.03
2022-12-11T08:54:40.647Z,97720.44
2022-12-11T08:57:08.612Z,97720.41
2022-12-11T08:59:36.520Z,97725.56
2022-12-11T09:02:04.488Z,97726.25
2022-12-11T09:04:32.459Z,97761.34
2022-12-11T09:07:01.810Z,97761.44
2022-12-11T09:09:29.753Z,97759.91
2022-12-11T09:11:57.790Z,97748.38
2022-12-11T09:14:25.730Z,97745.59
2022-12-11T09:16:53.659Z,97740.53
2022-12-11T09:19:21.618Z,97737.91
2022-12-11T09:21:49.732Z,97729.38
2022-12-11T09:24:19.043Z,97728.56
2022-12-11T09:26:47.291Z,97720.88
2022-12-11T09:29:15.266Z,97720.28
2022-12-11T09:31:43.314Z,97713.78
2022-12-11T09:34:14.011Z,97695.34
2022-12-11T09:36:44.307Z,97682.34
2022-12-11T09:39:14.491Z,97690.25
2022-12-11T09:41:50.804Z,97679.91
2022-12-11T09:44:41.000Z,97674.84
2022-12-11T09:47:20.357Z,97655.59
2022-12-11T09:49:52.673Z,97637.16
2022-12-11T09:52:29.802Z,97648.88
2022-12-11T09:55:02.067Z,97652.91
2022-12-11T09:57:40.540Z,97663.44
2022-12-11T10:00:19.986Z,97654.69
2022-12-11T10:03:11.160Z,97666.38
2022-12-11T10:05:48.719Z,97678.38
2022-12-11T10:08:24.750Z,97662.16
2022-12-11T10:10:59.706Z,97669.03
2022-12-11T10:13:34.688Z,97659.91
2022-12-11T10:16:13.127Z,97649.28
2022-12-11T10:18:42.265Z,97645.63
2022-12-11T10:21:11.818Z,97652.09
2022-12-11T10:23:45.257Z,97648.16
2022-12-11T10:26:18.472Z,97630.22
2022-12-11T10:28:47.846Z,97617.19
2022-12-11T10:31:19.188Z,97624.84
2022-12-11T10:33:57.636Z,97621.41
2022-12-11T10:36:30.228Z,97614.38
2022-12-11T10:38:58.744Z,97596.06
2022-12-11T10:41:37.797Z,97584.22
2022-12-11T10:44:17.845Z,97578.06
2022-12-11T10:46:46.381Z,97575.69
2022-12-11T10:49:24.567Z,97573.22
2022-12-11T10:51:53.926Z,97566.47
2022-12-11T10:54:34.757Z,97565.03
2022-12-11T10:57:04.243Z,97586.84
2022-12-11T10:59:38.010Z,97581.31
2022-12-11T11:02:07.666Z,97582.16
2022-12-11T11:04:39.122Z,97565.25
2022-12-11T11:07:15.212Z,97589.50
2022-12-11T11:09:43.173Z,97576.41
2022-12-11T11:12:22.927Z,97591.97
2022-12-11T11:15:01.935Z,97590.00
2022-12-11T11:17:35.155Z,97590.78
2022-12-11T11:20:13.158Z,97590.16
2022-12-11T11:22:45.601Z,97576.03
2022-12-11T11:25:19.594Z,97585.34
2022-12-11T11:27:54.023Z,97580.34
2022-12-11T11:30:25.633Z,97585.09
2022-12-11T11:32:56.349Z,97584.63
2022-12-11T11:35:26.644Z,97582.44
2022-12-11T11:38:04.592Z,97570.91
2022-12-11T11:40:37.988Z,97578.91
2022-12-11T11:43:15.327Z,97564.34
2022-12-11T11:45:48.757Z,97564.72
2022-12-11T11:48:31.895Z,97574.13
2022-12-11T11:51:00.502Z,97540.25
2022-12-11T11:53:37.309Z,97571.47
2022-12-11T11:56:18.363Z,97568.19
2022-12-11T11:58:51.571Z,97576.47
2022-12-11T12:01:22.005Z,97572.00
2022-12-11T12:03:50.953Z,97575.75
2022-12-11T12:06:30.036Z,97560.06
2022-12-11T12:09:06.548Z,97566.09
2022-12-11T12:11:42.025Z,97554.41
2022-12-11T12:14:50.501Z,97548.69
2022-12-11T12:17:19.559Z,97546.81
2022-12-11T12:19:56.456Z,97554.63
2022-12-11T12:22:42.227Z,97548.31
2022-12-11T12:25:19.983Z,97527.09
2022-12-11T12:27:54.218Z,97540.50
2022-12-11T12:30:23.813Z,97535.25
2022-12-11T12:33:11.922Z,97527.78
2022-12-11T12:35:44.573Z,97523.50
2022-12-11T12:38:18.874Z,97528.25
2022-12-11T12:40:57.738Z,97540.84
2022-12-11T12:43:48.652Z,97540.09
2022-12-11T12:46:27.315Z,97534.78
2022-12-11T12:48:59.983Z,97534.41
2022-12-11T12:51:29.081Z,97529.56
2022-12-11T12:54:00.348Z,97531.66
2022-12-11T12:56:30.436Z,97519.69
2022-12-11T12:58:58.434Z,97528.53
2022-12-11T13:01:28.575Z,97530.13
2022-12-11T13:04:02.113Z,97532.81
2022-12-11T13:06:37.036Z,97535.28
2022-12-11T13:09:16.128Z,97531.38
2022-12-11T13:11:44.360Z,97535.50
2022-12-11T13:14:28.542Z,97539.59
2022-12-11T13:17:09.472Z,97533.13
2022-12-11T13:19:42.732Z,97538.25
2022-12-11T13:22:23.437Z,97539.19
2022-12-11T13:25:01.658Z,97529.78
2022-12-11T13:27:39.403Z,97527.34
2022-12-11T13:30:21.839Z,97528.13
2022-12-11T13:32:59.847Z,97527.59
2022-12-11T13:35:30.346Z,97524.50
2022-12-11T13:38:02.709Z,97512.88
2022-12-11T13:40:37.990Z,97528.72
2022-12-11T13:43:09.515Z,97533.91
2022-12-11T13:45:44.723Z,97538.25
2022-12-11T13:48:20.486Z,97550.91
2022-12-11T13:50:51.923Z,97543.50
2022-12-11T13:53:22.235Z,97548.78
2022-12-11T13:55:58.617Z,97544.72
2022-12-11T13:58:26.803Z,97552.03
2022-12-11T14:01:04.137Z,97552.63
2022-12-11T14:03:32.975Z,97546.09
2022-12-11T14:06:03.173Z,97541.81
2022-12-11T14:08:37.270Z,97524.44
2022-12-11T14:11:06.324Z,97547.16
2022-12-11T14:13:36.562Z,97563.13
2022-12-11T14:16:07.764Z,97584.00
2022-12-11T14:18:37.873Z,97587.97
2022-12-11T14:21:07.822Z,97590.13
2022-12-11T14:23:37.452Z,97598.94
2022-12-11T14:26:16.500Z,97588.44
2022-12-11T14:28:44.959Z,97591.50
2022-12-11T14:31:16.987Z,97582.44
2022-12-11T14:33:49.031Z,97593.59
2022-12-11T14:36:18.776Z,97597.44
2022-12-11T14:38:50.594Z,97590.56
2022-12-11T14:41:24.312Z,97592.56
2022-12-11T14:43:55.872Z,97607.75
2022-12-11T14:46:30.668Z,97612.41
2022-12-11T14:49:26.006Z,97616.44
2022-12-11T14:51:58.550Z,97606.28
2022-12-11T14:54:32.874Z,97612.38
2022-12-11T14:57:02.947Z,97609.28
2022-12-11T14:59:33.134Z,97618.00
2022-12-11T15:02:03.109Z,97607.63
2022-12-11T15:04:33.050Z,97604.34
2022-12-11T15:07:02.420Z,97610.63
2022-12-11T15:09:37.861Z,97607.78
2022-12-11T15:12:12.478Z,97606.34
2022-12-11T15:14:46.884Z,97591.91
2022-12-11T15:17:31.764Z,97594.94
2022-12-11T15:20:07.511Z,97595.41
2022-12-11T15:22:37.642Z,97609.59
2022-12-11T15:25:06.499Z,97614.63
2022-12-11T15:27:37.031Z,97617.88
2022-12-11T15:30:17.784Z,97622.56
2022-12-11T15:32:45.733Z,97637.78
2022-12-11T15:35:24.703Z,97637.00
2022-12-11T15:37:56.149Z,97627.22
2022-12-11T15:40:24.950Z,97641.69
2022-12-11T15:42:54.892Z,97634.78
2022-12-11T15:45:24.830Z,97643.19
2022-12-11T15:47:53.307Z,97640.97
2022-12-11T15:50:23.437Z,97635.13
2022-12-11T15:52:52.758Z,97638.16
2022-12-11T15:55:24.237Z,97639.78
2022-12-11T15:57:55.259Z,97636.13
2022-12-11T16:00:23.962Z,97628.22
2022-12-11T16:02:52.233Z,97645.66
2022-12-11T16:05:20.526Z,97630.25
2022-12-11T16:07:49.368Z,97644.44
2022-12-11T16:10:19.462Z,97631.06
2022-12-11T16:12:48.746Z,97636.75
2022-12-11T16:15:23.155Z,97630.44
2022-12-11T16:17:51.925Z,97626.56
2022-12-11T16:20:20.118Z,97628.38
2022-12-11T16:22:48.010Z,97627.00
2022-12-11T16:25:16.090Z,97625.75
2022-12-11T16:27:44.083Z,97619.09
2022-12-11T16:30:15.074Z,97622.31
2022-12-11T16:32:43.738Z,97622.13
2022-12-11T16:35:11.946Z,97618.06
2022-12-11T16:37:40.213Z,97618.47
2022-12-11T16:40:09.719Z,97610.56
2022-12-11T16:42:39.036Z,97619.69
2022-12-11T16:45:09.553Z,97626.38
2022-12-11T16:47:39.145Z,97630.66
2022-12-11T16:50:08.094Z,97644.66
2022-12-11T16:52:36.171Z,97654.19
2022-12-11T16:55:04.203Z,97652.34
2022-12-11T16:57:32.637Z,97665.16
2022-12-11T17:00:04.203Z,97632.66
2022-12-11T17:02:32.354Z,97672.84
2022-12-11T17:05:01.667Z,97673.41
2022-12-11T17:07:29.718Z,97681.69
2022-12-11T17:09:57.649Z,97700.72
2022-12-11T17:12:27.789Z,97698.41
2022-12-11T17:14:55.783Z,97680.66
2022-12-11T17:17:24.234Z,97705.50
2022-12-11T17:19:52.207Z,97721.81
2022-12-11T17:22:21.880Z,97716.59
2022-12-11T17:24:49.900Z,97720.34
2022-12-11T17:27:18.087Z,97722.34
2022-12-11T17:29:47.406Z,97731.31
2022-12-11T17:32:16.714Z,97743.66
2022-12-11T17:34:44.834Z,97748.41
2022-12-11T17:37:13.162Z,97752.78
2022-12-11T17:39:42.458Z,97750.06
2022-12-11T17:42:10.435Z,97758.13
2022-12-11T17:44:38.999Z,97771.69
2022-12-11T17:47:11.089Z,97783.00
2022-12-11T17:49:39.487Z,97797.78
2022-12-11T17:52:07.745Z,97805.38
2022-12-11T17:54:36.157Z,97812.59
2022-12-11T17:57:06.680Z,97843.44
2022-12-11T17:59:34.988Z,97850.03
2022-12-11T18:02:02.977Z,97840.13
2022-12-11T18:04:31.243Z,97873.72
2022-12-11T18:06:59.548Z,97886.84
2022-12-11T18:09:27.415Z,97888.84
2022-12-11T18:11:55.705Z,97879.06
2022-12-11T18:14:25.542Z,97898.97
2022-12-11T18:16:53.726Z,97917.63
2022-12-11T18:19:22.790Z,97928.69
2022-12-11T18:21:50.822Z,97949.50
2022-12-11T18:24:18.764Z,97948.50
2022-12-11T18:26:46.758Z,97960.88
2022-12-11T18:29:14.760Z,97964.16
2022-12-11T18:31:44.040Z,97968.97
2022-12-11T18:34:12.393Z,97960.91
2022-12-11T18:36:41.664Z,97940.13
2022-12-11T18:39:09.756Z,97958.75
2022-12-11T18:41:37.840Z,97961.19
2022-12-11T18:44:09.706Z,97962.94
2022-12-11T18:46:39.979Z,97926.81
2022-12-11T18:49:09.329Z,97964.75
2022-12-11T18:51:37.328Z,97970.47
2022-12-11T18:54:05.499Z,97966.13
2022-12-11T18:56:33.486Z,97996.16
2022-12-11T18:59:01.421Z,98004.34
2022-12-11T19:01:30.313Z,97992.78
2022-12-11T19:04:04.452Z,97999.78
2022-12-11T19:06:35.730Z,98008.97
2022-12-11T19:09:05.908Z,98010.31
2022-12-11T19:11:35.988Z,98006.91
2022-12-11T19:14:06.103Z,98009.66
2022-12-11T19:16:35.958Z,98014.25
2022-12-11T19:19:06.901Z,98012.00
2022-12-11T19:21:37.694Z,98015.31
2022-12-11T19:24:06.770Z,98021.03
2022-12-11T19:26:35.182Z,98007.47
2022-12-11T19:29:03.176Z,98012.34
2022-12-11T19:31:33.709Z,98018.59
2022-12-11T19:34:03.131Z,98019.38
2022-12-11T19:36:33.641Z,98028.22
2022-12-11T19:39:07.105Z,98022.31
2022-12-11T19:41:38.044Z,98029.06
2022-12-11T19:44:06.101Z,98024.31
2022-12-11T19:46:34.046Z,98016.94
2022-12-11T19:49:02.454Z,98022.16
2022-12-11T19:51:33.880Z,98014.66
2022-12-11T19:54:04.106Z,98018.59
2022-12-11T19:56:33.638Z,98029.22
2022-12-11T19:59:02.961Z,98020.72
2022-12-11T20:01:33.360Z,98036.72
2022-12-11T20:04:03.904Z,98039.63
2022-12-11T20:06:33.890Z,98037.84
2022-12-11T20:09:04.163Z,98049.22
2022-12-11T20:11:33.109Z,98034.22
2022-12-11T20:14:01.497Z,98012.97
2022-12-11T20:17:01.573Z,98026.34
2022-12-11T20:19:17.829Z,98054.00
2022-12-11T20:21:45.845Z,98050.56
2022-12-11T20:24:15.174Z,98056.72
2022-12-11T20:26:43.155Z,98051.19
2022-12-11T20:29:11.091Z,98043.00
2022-12-11T20:31:39.348Z,98041.06
2022-12-11T20:34:07.857Z,98037.28
2022-12-11T20:36:36.369Z,98045.44
2022-12-11T20:39:06.215Z,98057.63
2022-12-11T20:41:35.625Z,98054.75
2022-12-11T20:44:03.695Z,98057.53
2022-12-11T20:46:31.713Z,98071.56
2022-12-11T20:48:59.787Z,98057.84
2022-12-11T20:51:36.610Z,98066.88
2022-12-11T20:54:04.843Z,98074.47
2022-12-11T20:56:32.905Z,98050.41
2022-12-11T20:59:02.436Z,98075.88
2022-12-11T21:01:32.501Z,98087.44
2022-12-11T21:04:02.462Z,98097.31
2022-12-11T21:06:32.172Z,98099.22
2022-12-11T21:09:01.373Z,98075.88
2022-12-11T21:11:29.545Z,98099.38
2022-12-11T21:13:58.174Z,98078.50
2022-12-11T21:16:27.829Z,98096.25
2022-12-11T21:18:56.386Z,98110.03
2022-12-11T21:21:24.866Z,98111.50
2022-12-11T21:23:52.909Z,98113.84
2022-12-11T21:26:21.389Z,98101.31
2022-12-11T21:28:49.312Z,98114.88
2022-12-11T21:31:19.018Z,98119.63
2022-12-11T21:33:49.345Z,98115.38
2022-12-11T21:36:18.093Z,98114.13
2022-12-11T21:38:47.286Z,98105.44
2022-12-11T21:41:18.068Z,98113.69
2022-12-11T21:44:49.823Z,98124.94
2022-12-11T21:46:35.501Z,98125.75
2022-12-11T21:49:05.129Z,98125.81
2022-12-11T21:51:37.897Z,98134.81
2022-12-11T21:54:10.383Z,98147.06
2022-12-11T21:56:38.298Z,98152.16
2022-12-11T21:59:06.700Z,98151.50
2022-12-11T22:01:38.238Z,98155.19
2022-12-11T22:04:08.614Z,98157.19
2022-12-11T22:06:36.755Z,98170.34
2022-12-11T22:09:05.432Z,98169.25
2022-12-11T22:11:35.545Z,98145.09
2022-12-11T22:14:04.091Z,98170.91
2022-12-11T22:16:32.105Z,98160.41
2022-12-11T22:19:00.100Z,98146.31
2022-12-11T22:21:29.457Z,98145.13
2022-12-11T22:23:57.506Z,98131.69
2022-12-11T22:26:27.938Z,98133.50
2022-12-11T22:28:56.930Z,98137.06
2022-12-11T22:31:27.118Z,98106.03
2022-12-11T22:33:56.113Z,98122.31
2022-12-11T22:36:25.288Z,98140.78
2022-12-11T22:38:54.833Z,98146.06
2022-12-11T22:41:26.286Z,98154.88
2022-12-11T22:43:55.072Z,98138.44
2022-12-11T22:46:26.096Z,98152.69
2022-12-11T22:48:54.557Z,98149.22
2022-12-11T22:51:23.316Z,98143.22
2022-12-11T22:53:51.540Z,98137.63
2022-12-11T22:56:20.882Z,98137.75
2022-12-11T22:58:48.851Z,98145.00
2022-12-11T23:01:19.592Z,98147.91
2022-12-11T23:03:47.642Z,98168.31
2022-12-11T23:06:18.911Z,98164.34
2022-12-11T23:08:46.906Z,98167.91
2022-12-11T23:11:16.721Z,98170.19
2022-12-11T23:13:46.084Z,98161.28
2022-12-11T23:16:14.416Z,98163.91
2022-12-11T23:18:42.916Z,98163.66
2022-12-11T23:21:12.070Z,98150.50
2022-12-11T23:23:40.713Z,98161.06
2022-12-11T23:26:10.779Z,98160.63
2022-12-11T23:28:39.178Z,98172.28
2022-12-11T23:31:09.083Z,98172.72
2022-12-11T23:33:37.079Z,98172.28
2022-12-11T23:36:05.289Z,98171.88
2022-12-11T23:38:33.563Z,98183.34
2022-12-11T23:41:03.202Z,98182.50
2022-12-11T23:43:31.345Z,98180.47
2022-12-11T23:45:59.327Z,98174.97
2022-12-11T23:48:28.650Z,98191.94
2022-12-11T23:51:00.464Z,98197.69
2022-12-11T23:53:28.434Z,98191.84
2022-12-11T23:55:56.565Z,98208.81
2022-12-11T23:58:24.461Z,98210.50
